createdAt,value
2022-07-28T00:01:00.020Z,11.51
2022-07-28T00:03:28.054Z,11.42
2022-07-28T00:06:00.006Z,11.28
2022-07-28T00:08:27.200Z,11.23
2022-07-28T00:10:54.505Z,11.27
2022-07-28T00:13:21.398Z,11.24
2022-07-28T00:15:48.589Z,11.24
2022-07-28T00:18:15.492Z,11.21
2022-07-28T00:20:42.332Z,11.07
2022-07-28T00:23:09.508Z,11.14
2022-07-28T00:25:38.496Z,11.19
2022-07-28T00:28:05.593Z,11.03
2022-07-28T00:30:32.842Z,11.01
2022-07-28T00:33:00.008Z,10.89
2022-07-28T00:35:30.762Z,10.85
2022-07-28T00:37:59.632Z,10.90
2022-07-28T00:40:46.990Z,10.91
2022-07-28T00:43:14.488Z,10.90
2022-07-28T00:45:41.569Z,10.78
2022-07-28T00:48:08.650Z,10.83
2022-07-28T00:50:38.056Z,10.73
2022-07-28T00:53:05.979Z,10.75
2022-07-28T00:56:05.496Z,10.74
2022-07-28T00:58:22.402Z,10.70
2022-07-28T01:00:49.798Z,10.73
2022-07-28T01:03:16.947Z,10.64
2022-07-28T01:05:52.675Z,10.63
2022-07-28T01:08:27.948Z,10.65
2022-07-28T01:11:12.386Z,10.53
2022-07-28T01:13:43.295Z,10.57
2022-07-28T01:16:10.646Z,10.58
2022-07-28T01:18:54.717Z,10.52
2022-07-28T01:21:25.999Z,10.50
2022-07-28T01:24:08.224Z,10.53
2022-07-28T01:26:38.566Z,10.54
2022-07-28T01:29:08.350Z,10.43
2022-07-28T01:31:41.197Z,10.33
2022-07-28T01:34:11.138Z,10.34
2022-07-28T01:36:51.724Z,10.31
2022-07-28T01:39:19.705Z,10.31
2022-07-28T01:41:47.995Z,10.21
2022-07-28T01:44:17.008Z,10.17
2022-07-28T01:46:45.537Z,10.00
2022-07-28T01:49:14.578Z,9.96
2022-07-28T01:51:41.823Z,10.04
2022-07-28T01:54:09.435Z,10.02
2022-07-28T01:56:37.160Z,9.90
2022-07-28T01:59:06.209Z,9.86
2022-07-28T02:01:37.477Z,9.87
2022-07-28T02:04:06.280Z,9.83
2022-07-28T02:06:34.486Z,9.82
2022-07-28T02:09:03.838Z,9.71
2022-07-28T02:11:41.224Z,9.60
2022-07-28T02:14:14.022Z,9.59
2022-07-28T02:16:43.501Z,9.44
2022-07-28T02:19:11.499Z,9.40
2022-07-28T02:21:40.890Z,9.40
2022-07-28T02:24:09.462Z,9.48
2022-07-28T02:26:38.703Z,9.33
2022-07-28T02:29:14.910Z,9.35
2022-07-28T02:32:05.567Z,9.39
2022-07-28T02:34:52.970Z,9.49
2022-07-28T02:37:21.287Z,9.44
2022-07-28T02:40:00.569Z,9.51
2022-07-28T02:42:30.918Z,9.56
2022-07-28T02:44:59.331Z,9.50
2022-07-28T02:47:28.706Z,9.50
2022-07-28T02:49:56.854Z,9.46
2022-07-28T02:52:24.278Z,9.53
2022-07-28T02:54:54.487Z,9.33
2022-07-28T02:57:22.344Z,9.41
2022-07-28T02:59:50.214Z,9.38
2022-07-28T03:02:19.864Z,9.45
2022-07-28T03:05:03.058Z,9.38
2022-07-28T03:07:36.256Z,9.34
2022-07-28T03:10:34.244Z,9.16
2022-07-28T03:13:02.481Z,9.25
2022-07-28T03:15:29.718Z,9.22
2022-07-28T03:17:56.484Z,9.08
2022-07-28T03:20:23.280Z,9.14
2022-07-28T03:22:50.281Z,9.09
2022-07-28T03:25:23.520Z,9.05
2022-07-28T03:27:51.256Z,9.01
2022-07-28T03:30:20.950Z,8.98
2022-07-28T03:32:51.465Z,8.89
2022-07-28T03:35:18.934Z,8.97
2022-07-28T03:38:04.804Z,8.98
2022-07-28T03:40:33.037Z,8.91
2022-07-28T03:43:03.488Z,8.90
2022-07-28T03:45:32.936Z,9.09
2022-07-28T03:47:59.695Z,9.09
2022-07-28T03:50:28.515Z,9.09
2022-07-28T03:52:55.919Z,9.10
2022-07-28T03:55:22.706Z,9.19
2022-07-28T03:57:49.657Z,9.30
2022-07-28T04:00:16.738Z,9.25
2022-07-28T04:02:44.199Z,9.33
2022-07-28T04:05:15.164Z,9.37
2022-07-28T04:07:42.056Z,9.24
2022-07-28T04:10:09.697Z,9.40
2022-07-28T04:12:50.031Z,9.42
2022-07-28T04:15:17.632Z,9.48
2022-07-28T04:17:45.217Z,9.43
2022-07-28T04:20:12.199Z,9.49
2022-07-28T04:22:39.316Z,9.63
2022-07-28T04:25:06.948Z,9.44
2022-07-28T04:27:35.269Z,9.58
2022-07-28T04:30:06.360Z,9.79
2022-07-28T04:32:33.312Z,9.82
2022-07-28T04:35:00.492Z,9.92
2022-07-28T04:37:27.544Z,10.01
2022-07-28T04:39:59.712Z,10.20
2022-07-28T04:42:26.731Z,10.37
2022-07-28T04:44:53.659Z,10.56
2022-07-28T04:47:20.752Z,10.66
2022-07-28T04:49:47.650Z,10.79
2022-07-28T04:52:15.765Z,10.96
2022-07-28T04:54:42.787Z,11.16
2022-07-28T04:57:12.742Z,11.29
2022-07-28T04:59:39.809Z,11.47
2022-07-28T05:02:07.115Z,11.63
2022-07-28T05:04:34.038Z,11.84
2022-07-28T05:07:02.207Z,11.99
2022-07-28T05:09:38.968Z,12.20
2022-07-28T05:12:06.679Z,12.34
2022-07-28T05:14:33.529Z,12.58
2022-07-28T05:17:00.582Z,12.79
2022-07-28T05:19:27.323Z,12.99
2022-07-28T05:21:54.053Z,13.25
2022-07-28T05:24:21.180Z,13.35
2022-07-28T05:26:47.887Z,13.57
2022-07-28T05:29:14.668Z,13.77
2022-07-28T05:31:41.709Z,14.00
2022-07-28T05:34:08.799Z,14.22
2022-07-28T05:36:36.068Z,14.49
2022-07-28T05:39:03.720Z,14.71
2022-07-28T05:41:30.497Z,15.05
2022-07-28T05:43:58.479Z,15.44
2022-07-28T05:46:25.584Z,15.89
2022-07-28T05:48:53.020Z,16.76
2022-07-28T05:51:19.803Z,17.87
2022-07-28T05:53:46.831Z,18.98
2022-07-28T05:56:13.597Z,19.94
2022-07-28T05:58:40.312Z,20.69
2022-07-28T06:01:07.608Z,21.25
2022-07-28T06:03:39.778Z,22.03
2022-07-28T06:06:15.567Z,22.64
2022-07-28T06:08:43.295Z,22.80
2022-07-28T06:11:11.700Z,23.55
2022-07-28T06:13:39.517Z,24.21
2022-07-28T06:16:12.598Z,24.70
2022-07-28T06:18:40.355Z,25.20
2022-07-28T06:21:07.144Z,25.90
2022-07-28T06:23:34.034Z,26.36
2022-07-28T06:26:01.057Z,27.21
2022-07-28T06:28:27.929Z,27.66
2022-07-28T06:30:54.691Z,28.11
2022-07-28T06:33:21.685Z,28.65
2022-07-28T06:35:51.565Z,29.03
2022-07-28T06:38:20.545Z,29.26
2022-07-28T06:40:48.027Z,29.70
2022-07-28T06:43:14.904Z,29.95
2022-07-28T06:45:41.756Z,30.56
2022-07-28T06:48:08.980Z,31.04
2022-07-28T06:50:36.488Z,30.79
2022-07-28T06:53:03.296Z,31.14
2022-07-28T06:55:35.350Z,31.32
2022-07-28T06:58:03.772Z,31.38
2022-07-28T07:00:30.733Z,31.24
2022-07-28T07:02:57.857Z,30.99
2022-07-28T07:05:25.868Z,30.90
2022-07-28T07:07:52.691Z,30.98
2022-07-28T07:10:19.684Z,31.08
2022-07-28T07:12:46.486Z,31.47
2022-07-28T07:15:13.677Z,31.66
2022-07-28T07:17:42.101Z,32.19
2022-07-28T07:20:09.448Z,32.79
2022-07-28T07:22:41.895Z,32.40
2022-07-28T07:25:11.960Z,32.97
2022-07-28T07:27:39.174Z,33.45
2022-07-28T07:30:06.535Z,33.93
2022-07-28T07:32:33.511Z,34.38
2022-07-28T07:35:00.239Z,34.89
2022-07-28T07:37:27.211Z,34.44
2022-07-28T07:39:54.153Z,32.31
2022-07-28T07:42:20.890Z,32.18
2022-07-28T07:44:51.502Z,30.78
2022-07-28T07:47:18.733Z,31.43
2022-07-28T07:49:46.619Z,31.54
2022-07-28T07:52:14.161Z,31.79
2022-07-28T07:54:41.558Z,32.21
2022-07-28T07:57:08.648Z,32.38
2022-07-28T07:59:35.440Z,31.39
2022-07-28T08:02:02.759Z,30.05
2022-07-28T08:04:29.702Z,30.54
2022-07-28T08:06:56.528Z,31.47
2022-07-28T08:09:23.623Z,32.30
2022-07-28T08:11:50.367Z,32.77
2022-07-28T08:14:17.994Z,32.79
2022-07-28T08:16:45.541Z,31.80
2022-07-28T08:19:12.286Z,31.08
2022-07-28T08:21:39.353Z,30.43
2022-07-28T08:24:06.538Z,29.69
2022-07-28T08:26:33.260Z,29.26
2022-07-28T08:29:00.127Z,29.27
2022-07-28T08:31:27.141Z,29.17
2022-07-28T08:33:54.988Z,29.06
2022-07-28T08:36:22.104Z,29.20
2022-07-28T08:38:49.127Z,29.31
2022-07-28T08:41:22.484Z,28.55
2022-07-28T08:43:50.009Z,28.03
2022-07-28T08:46:17.588Z,27.49
2022-07-28T08:48:45.030Z,27.89
2022-07-28T08:51:12.109Z,28.57
2022-07-28T08:53:39.992Z,29.25
2022-07-28T08:56:12.776Z,29.88
2022-07-28T08:58:39.608Z,29.89
2022-07-28T09:01:08.565Z,30.23
2022-07-28T09:03:36.327Z,29.77
2022-07-28T09:06:03.442Z,29.32
2022-07-28T09:08:30.519Z,29.36
2022-07-28T09:10:57.408Z,28.73
2022-07-28T09:13:24.183Z,27.72
2022-07-28T09:15:51.292Z,27.33
2022-07-28T09:18:18.563Z,27.30
2022-07-28T09:20:45.585Z,27.16
2022-07-28T09:23:42.006Z,26.92
2022-07-28T09:26:12.086Z,26.53
2022-07-28T09:28:49.369Z,26.08
2022-07-28T09:31:17.162Z,25.49
2022-07-28T09:33:55.016Z,25.03
2022-07-28T09:36:21.955Z,24.66
2022-07-28T09:38:49.178Z,24.35
2022-07-28T09:41:18.984Z,24.18
2022-07-28T09:43:49.783Z,24.31
2022-07-28T09:46:24.549Z,24.47
2022-07-28T09:48:54.302Z,24.59
2022-07-28T09:51:21.249Z,24.77
2022-07-28T09:53:48.358Z,24.98
2022-07-28T09:56:15.240Z,24.93
2022-07-28T09:58:52.348Z,24.80
2022-07-28T10:01:21.218Z,24.65
2022-07-28T10:03:58.087Z,24.63
2022-07-28T10:06:34.533Z,25.04
2022-07-28T10:09:02.625Z,26.63
2022-07-28T10:11:30.409Z,27.99
2022-07-28T10:14:02.960Z,29.56
2022-07-28T10:16:31.551Z,30.24
2022-07-28T10:18:59.780Z,27.93
2022-07-28T10:21:27.625Z,27.29
2022-07-28T10:23:56.151Z,27.71
2022-07-28T10:26:31.552Z,27.38
2022-07-28T10:29:00.541Z,27.30
2022-07-28T10:31:47.765Z,26.70
2022-07-28T10:34:25.037Z,26.12
2022-07-28T10:36:56.276Z,26.12
2022-07-28T10:39:24.020Z,26.33
2022-07-28T10:41:51.547Z,27.02
2022-07-28T10:44:19.635Z,29.00
2022-07-28T10:46:47.026Z,31.99
2022-07-28T10:49:14.459Z,34.06
2022-07-28T10:52:00.105Z,35.26
2022-07-28T10:54:30.984Z,35.30
2022-07-28T10:57:00.108Z,32.67
2022-07-28T10:59:55.839Z,30.28
2022-07-28T11:02:44.144Z,28.40
2022-07-28T11:05:31.231Z,28.62
2022-07-28T11:08:01.060Z,27.99
2022-07-28T11:10:28.911Z,27.14
2022-07-28T11:12:56.916Z,27.84
2022-07-28T11:15:29.404Z,29.51
2022-07-28T11:18:09.290Z,30.58
2022-07-28T11:21:00.312Z,31.94
2022-07-28T11:23:46.284Z,31.67
2022-07-28T11:26:20.351Z,32.18
2022-07-28T11:29:05.758Z,32.52
2022-07-28T11:31:45.610Z,31.59
2022-07-28T11:34:12.626Z,31.92
2022-07-28T11:36:58.141Z,32.44
2022-07-28T11:39:25.881Z,33.20
2022-07-28T11:41:52.892Z,32.54
2022-07-28T11:44:26.714Z,32.92
2022-07-28T11:46:53.874Z,30.74
2022-07-28T11:49:22.128Z,29.04
2022-07-28T11:52:15.181Z,29.13
2022-07-28T11:54:47.822Z,27.89
2022-07-28T11:57:15.585Z,26.86
2022-07-28T11:59:50.394Z,27.58
2022-07-28T12:02:18.733Z,28.12
2022-07-28T12:04:46.013Z,30.57
2022-07-28T12:07:13.207Z,32.31
2022-07-28T12:09:42.517Z,33.50
2022-07-28T12:12:09.632Z,33.80
2022-07-28T12:14:40.508Z,33.55
2022-07-28T12:17:08.104Z,32.48
2022-07-28T12:19:35.069Z,30.70
2022-07-28T12:22:09.377Z,29.31
2022-07-28T12:24:45.463Z,28.33
2022-07-28T12:27:14.731Z,28.08
2022-07-28T12:29:41.820Z,27.95
2022-07-28T12:32:12.232Z,27.69
2022-07-28T12:34:40.601Z,27.76
2022-07-28T12:37:10.037Z,27.64
2022-07-28T12:39:39.864Z,27.44
2022-07-28T12:42:08.049Z,27.20
2022-07-28T12:44:35.660Z,27.24
2022-07-28T12:47:03.540Z,26.39
2022-07-28T12:49:30.328Z,26.29
2022-07-28T12:51:59.194Z,26.46
2022-07-28T12:54:36.846Z,26.48
2022-07-28T12:57:03.922Z,26.60
2022-07-28T12:59:34.904Z,26.75
2022-07-28T13:02:02.928Z,27.05
2022-07-28T13:04:49.030Z,27.16
2022-07-28T13:07:25.525Z,27.26
2022-07-28T13:10:04.566Z,26.94
2022-07-28T13:12:31.755Z,27.11
2022-07-28T13:15:18.937Z,27.04
2022-07-28T13:17:50.392Z,26.63
2022-07-28T13:20:17.175Z,26.44
2022-07-28T13:22:45.731Z,26.43
2022-07-28T13:25:13.435Z,25.56
2022-07-28T13:27:40.420Z,25.60
2022-07-28T13:30:07.772Z,25.89
2022-07-28T13:32:34.868Z,25.82
2022-07-28T13:35:02.018Z,25.52
2022-07-28T13:37:28.861Z,25.41
2022-07-28T13:39:55.925Z,24.80
2022-07-28T13:42:23.574Z,24.79
2022-07-28T13:44:50.720Z,24.46
2022-07-28T13:47:18.446Z,24.57
2022-07-28T13:49:45.504Z,24.45
2022-07-28T13:52:17.280Z,24.67
2022-07-28T13:55:00.616Z,25.17
2022-07-28T13:57:31.195Z,25.67
2022-07-28T13:59:58.089Z,25.95
2022-07-28T14:02:25.987Z,25.85
2022-07-28T14:04:52.969Z,25.67
2022-07-28T14:07:20.788Z,25.77
2022-07-28T14:09:50.303Z,25.57
2022-07-28T14:12:17.360Z,25.40
2022-07-28T14:14:46.975Z,25.47
2022-07-28T14:17:40.204Z,25.07
2022-07-28T14:20:02.387Z,25.15
2022-07-28T14:22:29.380Z,25.28
2022-07-28T14:24:56.108Z,25.21
2022-07-28T14:27:27.176Z,24.68
2022-07-28T14:29:56.366Z,24.67
2022-07-28T14:32:23.339Z,24.56
2022-07-28T14:34:50.657Z,24.33
2022-07-28T14:37:17.984Z,24.10
2022-07-28T14:39:44.724Z,24.33
2022-07-28T14:42:11.552Z,24.51
2022-07-28T14:44:38.680Z,24.09
2022-07-28T14:47:07.440Z,24.07
2022-07-28T14:49:35.129Z,23.30
2022-07-28T14:52:02.465Z,23.61
2022-07-28T14:54:29.404Z,23.45
2022-07-28T14:56:56.284Z,23.35
2022-07-28T14:59:23.464Z,23.81
2022-07-28T15:01:50.422Z,24.19
2022-07-28T15:04:18.079Z,24.37
2022-07-28T15:06:45.646Z,24.57
2022-07-28T15:09:12.423Z,24.50
2022-07-28T15:11:41.357Z,24.44
2022-07-28T15:14:08.468Z,24.37
2022-07-28T15:16:35.279Z,24.43
2022-07-28T15:19:02.587Z,24.28
2022-07-28T15:21:34.346Z,24.32
2022-07-28T15:24:03.570Z,24.22
2022-07-28T15:26:30.745Z,24.05
2022-07-28T15:28:57.479Z,23.66
2022-07-28T15:31:25.577Z,23.39
2022-07-28T15:33:57.595Z,22.97
2022-07-28T15:36:25.561Z,22.80
2022-07-28T15:38:53.137Z,22.37
2022-07-28T15:41:20.533Z,22.44
2022-07-28T15:43:48.155Z,22.89
2022-07-28T15:46:15.080Z,22.99
2022-07-28T15:48:43.323Z,23.09
2022-07-28T15:51:10.395Z,23.12
2022-07-28T15:53:37.257Z,23.04
2022-07-28T15:56:04.789Z,23.09
2022-07-28T15:58:31.959Z,23.22
2022-07-28T16:01:00.976Z,23.31
2022-07-28T16:03:29.662Z,23.30
2022-07-28T16:05:56.784Z,23.22
2022-07-28T16:08:23.725Z,23.17
2022-07-28T16:10:52.780Z,23.11
2022-07-28T16:13:35.540Z,23.08
2022-07-28T16:16:14.081Z,22.98
2022-07-28T16:18:42.708Z,22.64
2022-07-28T16:21:10.191Z,22.60
2022-07-28T16:23:37.101Z,22.55
2022-07-28T16:26:07.676Z,22.36
2022-07-28T16:28:35.136Z,22.08
2022-07-28T16:31:01.973Z,22.14
2022-07-28T16:33:33.666Z,21.78
2022-07-28T16:36:02.177Z,21.96
2022-07-28T16:38:29.852Z,21.88
2022-07-28T16:40:57.365Z,21.85
2022-07-28T16:43:24.676Z,21.92
2022-07-28T16:45:51.521Z,21.96
2022-07-28T16:48:18.264Z,21.77
2022-07-28T16:50:46.289Z,21.53
2022-07-28T16:53:14.022Z,21.49
2022-07-28T16:55:42.283Z,21.43
2022-07-28T16:58:09.347Z,21.30
2022-07-28T17:00:36.229Z,21.46
2022-07-28T17:03:02.968Z,21.39
2022-07-28T17:05:29.948Z,21.41
2022-07-28T17:07:56.849Z,21.42
2022-07-28T17:10:27.477Z,21.44
2022-07-28T17:12:55.038Z,21.40
2022-07-28T17:15:22.751Z,21.30
2022-07-28T17:17:53.388Z,21.18
2022-07-28T17:20:21.154Z,21.24
2022-07-28T17:22:48.722Z,21.18
2022-07-28T17:25:44.524Z,21.15
2022-07-28T17:28:03.794Z,20.99
2022-07-28T17:30:32.866Z,21.04
2022-07-28T17:33:06.130Z,21.04
2022-07-28T17:35:36.049Z,21.16
2022-07-28T17:38:05.199Z,21.20
2022-07-28T17:40:32.142Z,21.19
2022-07-28T17:42:59.276Z,21.11
2022-07-28T17:45:26.067Z,21.11
2022-07-28T17:47:52.921Z,21.14
2022-07-28T17:50:20.523Z,21.01
2022-07-28T17:52:47.273Z,20.94
2022-07-28T17:55:40.729Z,20.83
2022-07-28T17:58:27.891Z,20.76
2022-07-28T18:01:09.902Z,20.72
2022-07-28T18:04:00.036Z,20.61
2022-07-28T18:06:27.108Z,20.47
2022-07-28T18:08:54.065Z,20.50
2022-07-28T18:11:20.800Z,20.47
2022-07-28T18:14:04.828Z,20.43
2022-07-28T18:16:34.287Z,20.28
2022-07-28T18:19:02.864Z,20.26
2022-07-28T18:21:30.927Z,20.21
2022-07-28T18:23:59.972Z,20.21
2022-07-28T18:26:27.683Z,20.11
2022-07-28T18:28:55.415Z,20.01
2022-07-28T18:31:22.520Z,19.93
2022-07-28T18:33:49.908Z,19.80
2022-07-28T18:36:17.606Z,19.70
2022-07-28T18:38:45.912Z,19.67
2022-07-28T18:41:14.715Z,19.61
2022-07-28T18:43:42.688Z,19.53
2022-07-28T18:46:11.225Z,19.43
2022-07-28T18:48:38.919Z,19.30
2022-07-28T18:51:05.866Z,19.18
2022-07-28T18:53:32.822Z,19.07
2022-07-28T18:56:00.513Z,19.00
2022-07-28T18:58:27.925Z,18.86
2022-07-28T19:00:56.165Z,18.76
2022-07-28T19:03:24.517Z,18.67
2022-07-28T19:05:54.416Z,18.52
2022-07-28T19:08:22.750Z,18.40
2022-07-28T19:10:50.411Z,18.32
2022-07-28T19:13:18.129Z,18.22
2022-07-28T19:15:46.128Z,18.22
2022-07-28T19:18:14.407Z,18.21
2022-07-28T19:20:42.990Z,18.19
2022-07-28T19:23:10.815Z,18.12
2022-07-28T19:25:39.825Z,18.02
2022-07-28T19:28:07.485Z,17.94
2022-07-28T19:30:35.682Z,17.79
2022-07-28T19:33:03.719Z,17.70
2022-07-28T19:35:31.448Z,17.61
2022-07-28T19:38:00.622Z,17.54
2022-07-28T19:40:32.359Z,17.44
2022-07-28T19:43:00.410Z,17.41
2022-07-28T19:45:27.507Z,17.35
2022-07-28T19:47:55.736Z,17.25
2022-07-28T19:50:23.618Z,17.17
2022-07-28T19:52:51.292Z,17.11
2022-07-28T19:55:18.894Z,17.06
2022-07-28T19:57:46.624Z,17.14
2022-07-28T20:00:13.973Z,17.18
2022-07-28T20:02:40.926Z,17.09
2022-07-28T20:05:08.835Z,16.99
2022-07-28T20:07:37.024Z,16.95
2022-07-28T20:10:05.721Z,16.93
2022-07-28T20:12:36.591Z,16.87
2022-07-28T20:15:08.318Z,16.81
2022-07-28T20:17:39.159Z,16.79
2022-07-28T20:20:11.711Z,16.76
2022-07-28T20:22:39.958Z,16.69
2022-07-28T20:25:09.234Z,16.64
2022-07-28T20:27:39.930Z,16.59
2022-07-28T20:30:12.093Z,16.50
2022-07-28T20:32:42.132Z,16.46
2022-07-28T20:35:11.388Z,16.38
2022-07-28T20:37:39.770Z,16.37
2022-07-28T20:40:07.906Z,16.28
2022-07-28T20:42:35.416Z,16.25
2022-07-28T20:45:02.640Z,16.21
2022-07-28T20:47:32.013Z,16.08
2022-07-28T20:50:00.300Z,15.99
2022-07-28T20:52:27.980Z,16.01
2022-07-28T20:54:56.140Z,15.96
2022-07-28T20:57:24.388Z,15.90
2022-07-28T20:59:52.916Z,15.88
2022-07-28T21:02:21.205Z,15.84
2022-07-28T21:04:50.530Z,15.78
2022-07-28T21:08:00.759Z,15.82
2022-07-28T21:10:08.795Z,15.76
2022-07-28T21:12:39.258Z,15.70
2022-07-28T21:15:06.933Z,15.65
2022-07-28T21:17:34.010Z,15.64
2022-07-28T21:20:01.144Z,15.54
2022-07-28T21:22:27.915Z,15.55
2022-07-28T21:24:55.806Z,15.48
2022-07-28T21:27:23.530Z,15.45
2022-07-28T21:32:17.764Z,15.23
2022-07-28T21:34:44.625Z,15.21
2022-07-28T21:37:13.005Z,15.10
2022-07-28T21:39:40.487Z,15.05
2022-07-28T21:42:08.704Z,15.03
2022-07-28T21:44:36.087Z,15.01
2022-07-28T21:47:03.343Z,14.92
2022-07-28T21:49:31.395Z,14.90
2022-07-28T21:51:58.426Z,14.93
2022-07-28T21:54:25.609Z,14.84
2022-07-28T21:56:52.397Z,14.77
2022-07-28T21:59:19.489Z,14.68
2022-07-28T22:01:46.738Z,14.63
2022-07-28T22:04:14.183Z,14.60
2022-07-28T22:06:41.264Z,14.52
2022-07-28T22:09:13.784Z,14.37
2022-07-28T22:11:40.591Z,14.42
2022-07-28T22:14:07.449Z,14.35
2022-07-28T22:16:34.531Z,14.30
2022-07-28T22:19:01.703Z,14.27
2022-07-28T22:21:28.662Z,14.24
2022-07-28T22:23:56.131Z,14.23
2022-07-28T22:26:23.044Z,14.18
2022-07-28T22:28:49.807Z,14.02
2022-07-28T22:31:17.195Z,13.88
2022-07-28T22:33:44.088Z,13.74
2022-07-28T22:36:10.911Z,13.62
2022-07-28T22:38:38.026Z,13.59
2022-07-28T22:41:04.948Z,13.50
2022-07-28T22:43:34.787Z,13.54
2022-07-28T22:46:01.930Z,13.35
2022-07-28T22:48:29.340Z,13.35
2022-07-28T22:50:56.265Z,13.40
2022-07-28T22:53:23.508Z,13.36
2022-07-28T22:55:50.646Z,13.42
2022-07-28T22:58:17.479Z,13.47
2022-07-28T23:00:44.625Z,13.38
2022-07-28T23:03:13.133Z,13.38
2022-07-28T23:05:40.519Z,13.34
2022-07-28T23:08:07.767Z,13.26
2022-07-28T23:10:34.744Z,13.21
2022-07-28T23:13:01.873Z,13.14
2022-07-28T23:15:39.504Z,13.03
2022-07-28T23:18:11.971Z,12.92
2022-07-28T23:20:39.452Z,12.83
2022-07-28T23:23:06.345Z,12.79
2022-07-28T23:25:33.608Z,12.82
2022-07-28T23:28:01.446Z,12.73
2022-07-28T23:30:28.199Z,12.60
2022-07-28T23:32:55.360Z,12.57
2022-07-28T23:35:22.703Z,12.60
2022-07-28T23:37:49.512Z,12.66
2022-07-28T23:40:16.510Z,12.61
2022-07-28T23:42:43.795Z,12.56
2022-07-28T23:45:10.856Z,12.54
2022-07-28T23:47:37.691Z,12.43
2022-07-28T23:50:05.107Z,12.38
2022-07-28T23:52:31.953Z,12.30
2022-07-28T23:54:59.059Z,12.22
2022-07-28T23:57:30.869Z,12.17
2022-07-28T23:59:58.772Z,12.14
